sensor_id;sensor_type;location;lat;lon;timestamp;temperature;humidity
20432;DHT22;10375;49.136;10.366;2023-07-20T00:02:25;18.00;99.90
20432;DHT22;10375;49.136;10.366;2023-07-20T00:04:52;17.90;99.90
20432;DHT22;10375;49.136;10.366;2023-07-20T00:07:19;17.90;99.90
20432;DHT22;10375;49.136;10.366;2023-07-20T00:09:46;17.80;99.90
20432;DHT22;10375;49.136;10.366;2023-07-20T00:12:14;17.70;99.90
20432;DHT22;10375;49.136;10.366;2023-07-20T00:14:41;17.60;99.90
20432;DHT22;10375;49.136;10.366;2023-07-20T00:17:09;17.60;99.90
20432;DHT22;10375;49.136;10.366;2023-07-20T00:19:36;17.60;99.90
20432;DHT22;10375;49.136;10.366;2023-07-20T00:22:03;17.60;99.90
20432;DHT22;10375;49.136;10.366;2023-07-20T00:24:31;17.70;99.90
20432;DHT22;10375;49.136;10.366;2023-07-20T00:26:59;17.70;99.90
20432;DHT22;10375;49.136;10.366;2023-07-20T00:29:28;17.70;99.90
20432;DHT22;10375;49.136;10.366;2023-07-20T00:31:55;17.70;99.90
20432;DHT22;10375;49.136;10.366;2023-07-20T00:34:23;17.80;99.90
20432;DHT22;10375;49.136;10.366;2023-07-20T00:36:50;17.90;99.90
20432;DHT22;10375;49.136;10.366;2023-07-20T00:39:17;18.10;99.90
20432;DHT22;10375;49.136;10.366;2023-07-20T00:41:44;18.20;99.90
20432;DHT22;10375;49.136;10.366;2023-07-20T00:44:11;18.30;99.90
20432;DHT22;10375;49.136;10.366;2023-07-20T00:46:39;18.40;99.90
20432;DHT22;10375;49.136;10.366;2023-07-20T00:49:08;18.50;99.90
20432;DHT22;10375;49.136;10.366;2023-07-20T00:51:35;18.50;99.90
20432;DHT22;10375;49.136;10.366;2023-07-20T00:54:03;18.50;99.90
20432;DHT22;10375;49.136;10.366;2023-07-20T00:56:30;18.60;99.90
20432;DHT22;10375;49.136;10.366;2023-07-20T00:58:57;18.60;99.90
20432;DHT22;10375;49.136;10.366;2023-07-20T01:01:24;18.60;99.90
20432;DHT22;10375;49.136;10.366;2023-07-20T01:03:51;18.50;99.90
20432;DHT22;10375;49.136;10.366;2023-07-20T01:06:24;18.50;99.90
20432;DHT22;10375;49.136;10.366;2023-07-20T01:08:57;18.40;99.90
20432;DHT22;10375;49.136;10.366;2023-07-20T01:11:49;18.50;99.90
20432;DHT22;10375;49.136;10.366;2023-07-20T01:14:18;18.40;99.90
20432;DHT22;10375;49.136;10.366;2023-07-20T01:16:46;18.40;99.90
20432;DHT22;10375;49.136;10.366;2023-07-20T01:19:16;18.40;99.90
20432;DHT22;10375;49.136;10.366;2023-07-20T01:30:39;18.10;99.90
20432;DHT22;10375;49.136;10.366;2023-07-20T01:33:12;18.00;99.90
20432;DHT22;10375;49.136;10.366;2023-07-20T01:35:41;17.90;99.90
20432;DHT22;10375;49.136;10.366;2023-07-20T01:38:12;17.90;99.90
20432;DHT22;10375;49.136;10.366;2023-07-20T01:40:40;17.80;99.90
20432;DHT22;10375;49.136;10.366;2023-07-20T01:43:08;17.80;99.90
20432;DHT22;10375;49.136;10.366;2023-07-20T01:45:35;17.80;99.90
20432;DHT22;10375;49.136;10.366;2023-07-20T01:48:02;17.70;99.90
20432;DHT22;10375;49.136;10.366;2023-07-20T01:50:29;17.70;99.90
20432;DHT22;10375;49.136;10.366;2023-07-20T01:52:56;17.70;99.90
20432;DHT22;10375;49.136;10.366;2023-07-20T01:55:23;17.60;99.90
20432;DHT22;10375;49.136;10.366;2023-07-20T01:57:50;17.60;99.90
20432;DHT22;10375;49.136;10.366;2023-07-20T02:00:18;17.50;99.90
20432;DHT22;10375;49.136;10.366;2023-07-20T02:02:47;17.40;99.90
20432;DHT22;10375;49.136;10.366;2023-07-20T02:05:15;17.40;99.90
20432;DHT22;10375;49.136;10.366;2023-07-20T02:07:42;17.40;99.90
20432;DHT22;10375;49.136;10.366;2023-07-20T02:10:10;17.30;99.90
20432;DHT22;10375;49.136;10.366;2023-07-20T02:12:37;17.30;99.90
20432;DHT22;10375;49.136;10.366;2023-07-20T02:15:04;17.40;99.90
20432;DHT22;10375;49.136;10.366;2023-07-20T02:17:31;17.50;99.90
20432;DHT22;10375;49.136;10.366;2023-07-20T02:19:59;17.50;99.90
20432;DHT22;10375;49.136;10.366;2023-07-20T02:22:26;17.50;99.90
20432;DHT22;10375;49.136;10.366;2023-07-20T02:24:53;17.60;99.80
20432;DHT22;10375;49.136;10.366;2023-07-20T02:27:20;17.60;99.90
20432;DHT22;10375;49.136;10.366;2023-07-20T02:29:47;17.60;99.60
20432;DHT22;10375;49.136;10.366;2023-07-20T02:32:14;17.60;99.50
20432;DHT22;10375;49.136;10.366;2023-07-20T02:34:41;17.60;99.40
20432;DHT22;10375;49.136;10.366;2023-07-20T02:37:08;17.60;99.50
20432;DHT22;10375;49.136;10.366;2023-07-20T02:39:38;17.50;99.50
20432;DHT22;10375;49.136;10.366;2023-07-20T02:42:05;17.50;99.60
20432;DHT22;10375;49.136;10.366;2023-07-20T02:44:33;17.50;99.60
20432;DHT22;10375;49.136;10.366;2023-07-20T02:47:00;17.50;99.60
20432;DHT22;10375;49.136;10.366;2023-07-20T02:49:27;17.50;99.40
20432;DHT22;10375;49.136;10.366;2023-07-20T02:51:54;17.60;99.20
20432;DHT22;10375;49.136;10.366;2023-07-20T02:54:22;17.70;99.10
20432;DHT22;10375;49.136;10.366;2023-07-20T02:56:49;17.60;99.00
20432;DHT22;10375;49.136;10.366;2023-07-20T02:59:16;17.70;99.00
20432;DHT22;10375;49.136;10.366;2023-07-20T03:01:43;17.70;98.90
20432;DHT22;10375;49.136;10.366;2023-07-20T03:04:10;17.70;99.00
20432;DHT22;10375;49.136;10.366;2023-07-20T03:06:38;17.70;99.10
20432;DHT22;10375;49.136;10.366;2023-07-20T03:09:05;17.70;99.00
20432;DHT22;10375;49.136;10.366;2023-07-20T03:11:33;17.60;98.80
20432;DHT22;10375;49.136;10.366;2023-07-20T03:14:01;17.70;98.80
20432;DHT22;10375;49.136;10.366;2023-07-20T03:16:28;17.70;99.00
20432;DHT22;10375;49.136;10.366;2023-07-20T03:18:55;17.70;98.70
20432;DHT22;10375;49.136;10.366;2023-07-20T03:21:22;17.70;98.80
20432;DHT22;10375;49.136;10.366;2023-07-20T03:23:49;17.60;98.90
20432;DHT22;10375;49.136;10.366;2023-07-20T03:26:16;17.50;98.90
20432;DHT22;10375;49.136;10.366;2023-07-20T03:28:43;17.50;99.00
20432;DHT22;10375;49.136;10.366;2023-07-20T03:31:10;17.40;99.10
20432;DHT22;10375;49.136;10.366;2023-07-20T03:33:37;17.40;99.30
20432;DHT22;10375;49.136;10.366;2023-07-20T03:36:05;17.40;99.30
20432;DHT22;10375;49.136;10.366;2023-07-20T03:38:32;17.40;99.30
20432;DHT22;10375;49.136;10.366;2023-07-20T03:41:00;17.30;99.40
20432;DHT22;10375;49.136;10.366;2023-07-20T03:43:27;17.30;99.50
20432;DHT22;10375;49.136;10.366;2023-07-20T03:45:55;17.20;99.60
20432;DHT22;10375;49.136;10.366;2023-07-20T03:48:24;17.20;99.60
20432;DHT22;10375;49.136;10.366;2023-07-20T03:50:53;17.10;99.80
20432;DHT22;10375;49.136;10.366;2023-07-20T03:53:21;17.00;99.80
20432;DHT22;10375;49.136;10.366;2023-07-20T03:55:52;17.00;99.90
20432;DHT22;10375;49.136;10.366;2023-07-20T03:58:20;16.90;99.90
20432;DHT22;10375;49.136;10.366;2023-07-20T04:00:49;16.90;99.90
20432;DHT22;10375;49.136;10.366;2023-07-20T04:03:20;16.70;99.90
20432;DHT22;10375;49.136;10.366;2023-07-20T04:05:47;16.60;99.90
20432;DHT22;10375;49.136;10.366;2023-07-20T04:08:14;16.50;99.90
20432;DHT22;10375;49.136;10.366;2023-07-20T04:10:45;16.50;99.90
20432;DHT22;10375;49.136;10.366;2023-07-20T04:13:12;16.50;99.90
20432;DHT22;10375;49.136;10.366;2023-07-20T04:15:39;16.50;99.90
20432;DHT22;10375;49.136;10.366;2023-07-20T04:18:06;16.40;99.90
20432;DHT22;10375;49.136;10.366;2023-07-20T04:20:33;16.30;99.90
20432;DHT22;10375;49.136;10.366;2023-07-20T04:23:00;16.40;99.90
20432;DHT22;10375;49.136;10.366;2023-07-20T04:25:27;16.40;99.90
20432;DHT22;10375;49.136;10.366;2023-07-20T04:27:55;16.50;99.90
20432;DHT22;10375;49.136;10.366;2023-07-20T04:30:22;16.60;99.90
20432;DHT22;10375;49.136;10.366;2023-07-20T04:32:50;16.70;99.90
20432;DHT22;10375;49.136;10.366;2023-07-20T04:35:52;16.80;99.90
20432;DHT22;10375;49.136;10.366;2023-07-20T04:38:19;17.00;99.90
20432;DHT22;10375;49.136;10.366;2023-07-20T04:40:48;17.10;99.90
20432;DHT22;10375;49.136;10.366;2023-07-20T04:43:17;17.10;99.90
20432;DHT22;10375;49.136;10.366;2023-07-20T04:45:44;17.10;99.90
20432;DHT22;10375;49.136;10.366;2023-07-20T04:48:16;17.20;99.90
20432;DHT22;10375;49.136;10.366;2023-07-20T04:50:45;17.30;99.90
20432;DHT22;10375;49.136;10.366;2023-07-20T04:53:12;17.40;99.90
20432;DHT22;10375;49.136;10.366;2023-07-20T04:55:40;17.50;99.90
20432;DHT22;10375;49.136;10.366;2023-07-20T04:58:13;17.60;99.90
20432;DHT22;10375;49.136;10.366;2023-07-20T05:00:40;17.60;99.90
20432;DHT22;10375;49.136;10.366;2023-07-20T05:03:08;17.70;99.90
20432;DHT22;10375;49.136;10.366;2023-07-20T05:05:35;17.70;99.90
20432;DHT22;10375;49.136;10.366;2023-07-20T05:08:04;17.80;99.90
20432;DHT22;10375;49.136;10.366;2023-07-20T05:10:31;17.90;99.60
20432;DHT22;10375;49.136;10.366;2023-07-20T05:12:59;18.10;99.50
20432;DHT22;10375;49.136;10.366;2023-07-20T05:15:26;18.20;99.20
20432;DHT22;10375;49.136;10.366;2023-07-20T05:17:54;18.30;98.80
20432;DHT22;10375;49.136;10.366;2023-07-20T05:20:21;18.40;98.60
20432;DHT22;10375;49.136;10.366;2023-07-20T05:22:48;18.90;98.50
20432;DHT22;10375;49.136;10.366;2023-07-20T05:25:15;21.20;95.40
20432;DHT22;10375;49.136;10.366;2023-07-20T05:27:45;24.20;90.20
20432;DHT22;10375;49.136;10.366;2023-07-20T05:30:15;26.80;78.10
20432;DHT22;10375;49.136;10.366;2023-07-20T05:32:43;28.70;70.40
20432;DHT22;10375;49.136;10.366;2023-07-20T05:35:12;30.30;64.70
20432;DHT22;10375;49.136;10.366;2023-07-20T05:37:39;31.20;61.30
20432;DHT22;10375;49.136;10.366;2023-07-20T05:40:07;32.00;59.70
20432;DHT22;10375;49.136;10.366;2023-07-20T05:42:35;32.70;57.40
20432;DHT22;10375;49.136;10.366;2023-07-20T05:45:02;33.40;56.00
20432;DHT22;10375;49.136;10.366;2023-07-20T05:47:29;34.00;54.30
20432;DHT22;10375;49.136;10.366;2023-07-20T05:49:56;34.50;53.40
20432;DHT22;10375;49.136;10.366;2023-07-20T05:52:24;34.90;51.90
20432;DHT22;10375;49.136;10.366;2023-07-20T05:54:51;35.20;51.10
20432;DHT22;10375;49.136;10.366;2023-07-20T05:57:18;35.60;50.70
20432;DHT22;10375;49.136;10.366;2023-07-20T05:59:47;35.90;49.70
20432;DHT22;10375;49.136;10.366;2023-07-20T06:02:14;35.90;49.40
20432;DHT22;10375;49.136;10.366;2023-07-20T06:04:41;35.80;49.50
20432;DHT22;10375;49.136;10.366;2023-07-20T06:07:09;35.90;49.40
20432;DHT22;10375;49.136;10.366;2023-07-20T06:09:36;36.00;48.40
20432;DHT22;10375;49.136;10.366;2023-07-20T06:12:05;36.00;48.50
20432;DHT22;10375;49.136;10.366;2023-07-20T06:14:32;36.10;48.60
20432;DHT22;10375;49.136;10.366;2023-07-20T06:16:59;36.50;48.20
20432;DHT22;10375;49.136;10.366;2023-07-20T06:19:26;36.70;48.00
20432;DHT22;10375;49.136;10.366;2023-07-20T06:21:53;36.90;47.80
20432;DHT22;10375;49.136;10.366;2023-07-20T06:24:20;37.00;46.90
20432;DHT22;10375;49.136;10.366;2023-07-20T06:26:48;36.80;47.40
20432;DHT22;10375;49.136;10.366;2023-07-20T06:29:15;37.00;47.20
20432;DHT22;10375;49.136;10.366;2023-07-20T06:31:42;37.20;46.80
20432;DHT22;10375;49.136;10.366;2023-07-20T06:34:09;37.10;47.00
20432;DHT22;10375;49.136;10.366;2023-07-20T06:36:36;37.30;47.10
20432;DHT22;10375;49.136;10.366;2023-07-20T06:39:04;37.60;46.50
20432;DHT22;10375;49.136;10.366;2023-07-20T06:41:36;37.70;46.40
20432;DHT22;10375;49.136;10.366;2023-07-20T06:44:06;37.80;46.20
20432;DHT22;10375;49.136;10.366;2023-07-20T06:46:34;37.90;45.50
20432;DHT22;10375;49.136;10.366;2023-07-20T06:49:01;38.00;45.30
20432;DHT22;10375;49.136;10.366;2023-07-20T06:51:31;38.00;45.90
20432;DHT22;10375;49.136;10.366;2023-07-20T06:53:58;38.10;45.90
20432;DHT22;10375;49.136;10.366;2023-07-20T06:56:25;38.10;45.50
20432;DHT22;10375;49.136;10.366;2023-07-20T06:58:54;38.10;45.60
20432;DHT22;10375;49.136;10.366;2023-07-20T07:01:21;38.00;45.40
20432;DHT22;10375;49.136;10.366;2023-07-20T07:03:49;37.80;45.00
20432;DHT22;10375;49.136;10.366;2023-07-20T07:06:21;37.70;45.50
20432;DHT22;10375;49.136;10.366;2023-07-20T07:08:50;37.70;45.80
20432;DHT22;10375;49.136;10.366;2023-07-20T07:11:17;37.60;45.20
20432;DHT22;10375;49.136;10.366;2023-07-20T07:13:45;37.00;46.50
20432;DHT22;10375;49.136;10.366;2023-07-20T07:16:14;37.00;46.20
20432;DHT22;10375;49.136;10.366;2023-07-20T07:18:46;36.70;46.10
20432;DHT22;10375;49.136;10.366;2023-07-20T07:21:14;36.40;46.80
20432;DHT22;10375;49.136;10.366;2023-07-20T07:23:41;35.70;47.20
20432;DHT22;10375;49.136;10.366;2023-07-20T07:26:09;35.60;47.50
20432;DHT22;10375;49.136;10.366;2023-07-20T07:28:37;34.70;47.50
20432;DHT22;10375;49.136;10.366;2023-07-20T07:31:05;34.00;49.50
20432;DHT22;10375;49.136;10.366;2023-07-20T07:33:35;33.20;50.80
20432;DHT22;10375;49.136;10.366;2023-07-20T07:36:02;33.70;50.20
20432;DHT22;10375;49.136;10.366;2023-07-20T07:38:29;34.50;49.40
20432;DHT22;10375;49.136;10.366;2023-07-20T07:41:16;35.20;48.10
20432;DHT22;10375;49.136;10.366;2023-07-20T07:43:43;35.50;47.50
20432;DHT22;10375;49.136;10.366;2023-07-20T07:46:11;35.90;47.50
20432;DHT22;10375;49.136;10.366;2023-07-20T07:48:38;37.50;45.10
20432;DHT22;10375;49.136;10.366;2023-07-20T07:51:05;38.50;44.30
20432;DHT22;10375;49.136;10.366;2023-07-20T07:53:32;38.00;43.80
20432;DHT22;10375;49.136;10.366;2023-07-20T07:56:00;36.70;44.90
20432;DHT22;10375;49.136;10.366;2023-07-20T07:58:27;34.90;45.70
20432;DHT22;10375;49.136;10.366;2023-07-20T08:00:54;33.00;48.50
20432;DHT22;10375;49.136;10.366;2023-07-20T08:03:22;32.20;50.90
20432;DHT22;10375;49.136;10.366;2023-07-20T08:05:51;31.90;51.20
20432;DHT22;10375;49.136;10.366;2023-07-20T08:08:18;31.90;49.90
20432;DHT22;10375;49.136;10.366;2023-07-20T08:10:47;31.90;49.90
20432;DHT22;10375;49.136;10.366;2023-07-20T08:13:15;31.50;50.00
20432;DHT22;10375;49.136;10.366;2023-07-20T08:15:49;31.20;50.70
20432;DHT22;10375;49.136;10.366;2023-07-20T08:18:17;30.80;52.30
20432;DHT22;10375;49.136;10.366;2023-07-20T08:20:45;30.70;51.30
20432;DHT22;10375;49.136;10.366;2023-07-20T08:23:13;30.00;52.30
20432;DHT22;10375;49.136;10.366;2023-07-20T08:25:40;29.00;53.70
20432;DHT22;10375;49.136;10.366;2023-07-20T08:28:11;28.10;55.70
20432;DHT22;10375;49.136;10.366;2023-07-20T08:30:43;28.30;56.10
20432;DHT22;10375;49.136;10.366;2023-07-20T08:33:12;28.70;55.00
20432;DHT22;10375;49.136;10.366;2023-07-20T08:35:40;28.90;54.60
20432;DHT22;10375;49.136;10.366;2023-07-20T08:38:07;29.00;54.00
20432;DHT22;10375;49.136;10.366;2023-07-20T08:40:40;28.70;54.80
20432;DHT22;10375;49.136;10.366;2023-07-20T08:43:10;28.40;54.90
20432;DHT22;10375;49.136;10.366;2023-07-20T08:45:39;27.70;55.90
20432;DHT22;10375;49.136;10.366;2023-07-20T08:48:07;27.10;58.10
20432;DHT22;10375;49.136;10.366;2023-07-20T08:50:35;26.90;57.40
20432;DHT22;10375;49.136;10.366;2023-07-20T08:53:02;26.80;58.30
20432;DHT22;10375;49.136;10.366;2023-07-20T08:55:30;26.50;58.50
20432;DHT22;10375;49.136;10.366;2023-07-20T08:58:00;26.60;59.50
20432;DHT22;10375;49.136;10.366;2023-07-20T09:00:27;27.20;58.50
20432;DHT22;10375;49.136;10.366;2023-07-20T09:02:57;28.00;57.30
20432;DHT22;10375;49.136;10.366;2023-07-20T09:05:24;28.60;56.40
20432;DHT22;10375;49.136;10.366;2023-07-20T09:07:53;29.30;55.70
20432;DHT22;10375;49.136;10.366;2023-07-20T09:10:22;29.80;54.20
20432;DHT22;10375;49.136;10.366;2023-07-20T09:12:49;30.10;53.50
20432;DHT22;10375;49.136;10.366;2023-07-20T09:15:16;29.90;52.90
20432;DHT22;10375;49.136;10.366;2023-07-20T09:17:48;29.30;54.10
20432;DHT22;10375;49.136;10.366;2023-07-20T09:20:19;28.60;55.00
20432;DHT22;10375;49.136;10.366;2023-07-20T09:22:50;27.70;54.60
20432;DHT22;10375;49.136;10.366;2023-07-20T09:25:19;26.80;56.70
20432;DHT22;10375;49.136;10.366;2023-07-20T09:27:49;26.00;58.20
20432;DHT22;10375;49.136;10.366;2023-07-20T09:30:18;25.60;59.50
20432;DHT22;10375;49.136;10.366;2023-07-20T09:32:49;25.20;60.70
20432;DHT22;10375;49.136;10.366;2023-07-20T09:35:22;25.40;61.00
20432;DHT22;10375;49.136;10.366;2023-07-20T09:37:59;26.40;59.80
20432;DHT22;10375;49.136;10.366;2023-07-20T09:40:29;27.50;56.50
20432;DHT22;10375;49.136;10.366;2023-07-20T09:43:00;28.30;55.00
20432;DHT22;10375;49.136;10.366;2023-07-20T09:45:33;28.80;54.00
20432;DHT22;10375;49.136;10.366;2023-07-20T09:48:04;29.40;52.70
20432;DHT22;10375;49.136;10.366;2023-07-20T09:50:43;29.50;52.40
20432;DHT22;10375;49.136;10.366;2023-07-20T09:53:12;29.00;52.50
20432;DHT22;10375;49.136;10.366;2023-07-20T09:55:44;28.40;53.70
20432;DHT22;10375;49.136;10.366;2023-07-20T09:58:11;27.60;55.00
20432;DHT22;10375;49.136;10.366;2023-07-20T10:00:40;27.10;56.30
20432;DHT22;10375;49.136;10.366;2023-07-20T10:03:11;27.10;57.20
20432;DHT22;10375;49.136;10.366;2023-07-20T10:05:53;27.60;56.10
20432;DHT22;10375;49.136;10.366;2023-07-20T10:08:24;28.30;55.50
20432;DHT22;10375;49.136;10.366;2023-07-20T10:10:54;28.80;54.50
20432;DHT22;10375;49.136;10.366;2023-07-20T10:13:26;29.40;53.20
20432;DHT22;10375;49.136;10.366;2023-07-20T10:15:58;29.80;52.60
20432;DHT22;10375;49.136;10.366;2023-07-20T10:18:32;30.10;51.60
20432;DHT22;10375;49.136;10.366;2023-07-20T10:21:00;30.00;51.00
20432;DHT22;10375;49.136;10.366;2023-07-20T10:23:31;30.30;51.20
20432;DHT22;10375;49.136;10.366;2023-07-20T10:26:01;30.50;50.20
20432;DHT22;10375;49.136;10.366;2023-07-20T10:28:29;30.80;50.50
20432;DHT22;10375;49.136;10.366;2023-07-20T10:30:56;30.90;49.40
20432;DHT22;10375;49.136;10.366;2023-07-20T10:33:24;30.80;47.80
20432;DHT22;10375;49.136;10.366;2023-07-20T10:39:03;29.50;51.10
20432;DHT22;10375;49.136;10.366;2023-07-20T10:41:37;29.20;51.00
20432;DHT22;10375;49.136;10.366;2023-07-20T10:44:09;28.50;51.90
20432;DHT22;10375;49.136;10.366;2023-07-20T10:49:08;27.40;53.40
20432;DHT22;10375;49.136;10.366;2023-07-20T10:51:46;27.10;54.50
20432;DHT22;10375;49.136;10.366;2023-07-20T10:56:47;27.00;57.00
20432;DHT22;10375;49.136;10.366;2023-07-20T10:59:37;26.90;56.20
20432;DHT22;10375;49.136;10.366;2023-07-20T11:02:07;27.00;56.60
20432;DHT22;10375;49.136;10.366;2023-07-20T11:04:42;27.90;56.30
20432;DHT22;10375;49.136;10.366;2023-07-20T11:07:10;29.00;53.50
20432;DHT22;10375;49.136;10.366;2023-07-20T11:09:38;29.70;51.70
20432;DHT22;10375;49.136;10.366;2023-07-20T11:12:17;30.20;50.90
20432;DHT22;10375;49.136;10.366;2023-07-20T11:14:56;30.60;48.20
20432;DHT22;10375;49.136;10.366;2023-07-20T11:17:30;30.80;50.70
20432;DHT22;10375;49.136;10.366;2023-07-20T11:19:59;31.10;50.30
20432;DHT22;10375;49.136;10.366;2023-07-20T11:22:33;31.10;49.90
20432;DHT22;10375;49.136;10.366;2023-07-20T11:25:00;31.20;49.70
20432;DHT22;10375;49.136;10.366;2023-07-20T11:27:27;31.30;50.30
20432;DHT22;10375;49.136;10.366;2023-07-20T11:29:56;31.40;49.60
20432;DHT22;10375;49.136;10.366;2023-07-20T11:32:24;31.10;48.50
20432;DHT22;10375;49.136;10.366;2023-07-20T11:34:51;30.30;48.90
20432;DHT22;10375;49.136;10.366;2023-07-20T11:37:19;29.50;49.20
20432;DHT22;10375;49.136;10.366;2023-07-20T11:39:46;28.60;51.10
20432;DHT22;10375;49.136;10.366;2023-07-20T11:42:14;28.50;52.20
20432;DHT22;10375;49.136;10.366;2023-07-20T11:45:05;29.00;51.80
20432;DHT22;10375;49.136;10.366;2023-07-20T11:47:33;29.70;50.20
20432;DHT22;10375;49.136;10.366;2023-07-20T11:50:03;30.00;50.10
20432;DHT22;10375;49.136;10.366;2023-07-20T11:52:31;30.30;49.40
20432;DHT22;10375;49.136;10.366;2023-07-20T11:54:59;30.60;48.60
20432;DHT22;10375;49.136;10.366;2023-07-20T11:57:26;30.80;49.10
20432;DHT22;10375;49.136;10.366;2023-07-20T12:00:11;31.30;47.30
20432;DHT22;10375;49.136;10.366;2023-07-20T12:02:39;31.20;46.70
20432;DHT22;10375;49.136;10.366;2023-07-20T12:05:07;31.20;48.00
20432;DHT22;10375;49.136;10.366;2023-07-20T12:07:36;31.60;46.20
20432;DHT22;10375;49.136;10.366;2023-07-20T12:10:11;32.00;43.30
20432;DHT22;10375;49.136;10.366;2023-07-20T12:12:39;31.90;42.50
20432;DHT22;10375;49.136;10.366;2023-07-20T12:15:27;31.70;42.80
20432;DHT22;10375;49.136;10.366;2023-07-20T12:17:58;31.40;46.10
20432;DHT22;10375;49.136;10.366;2023-07-20T12:20:35;30.90;46.30
20432;DHT22;10375;49.136;10.366;2023-07-20T12:23:13;30.30;46.50
20432;DHT22;10375;49.136;10.366;2023-07-20T12:25:43;30.00;48.30
20432;DHT22;10375;49.136;10.366;2023-07-20T12:28:12;30.50;48.80
20432;DHT22;10375;49.136;10.366;2023-07-20T12:30:40;31.10;46.30
20432;DHT22;10375;49.136;10.366;2023-07-20T12:33:07;31.30;45.90
20432;DHT22;10375;49.136;10.366;2023-07-20T12:35:35;31.20;45.00
20432;DHT22;10375;49.136;10.366;2023-07-20T12:38:02;31.20;46.90
20432;DHT22;10375;49.136;10.366;2023-07-20T12:40:29;31.30;45.30
20432;DHT22;10375;49.136;10.366;2023-07-20T12:42:57;31.40;46.30
20432;DHT22;10375;49.136;10.366;2023-07-20T12:45:24;31.50;46.30
20432;DHT22;10375;49.136;10.366;2023-07-20T12:47:52;31.60;45.00
20432;DHT22;10375;49.136;10.366;2023-07-20T12:50:19;31.00;45.20
20432;DHT22;10375;49.136;10.366;2023-07-20T12:52:46;30.70;45.90
20432;DHT22;10375;49.136;10.366;2023-07-20T12:55:13;30.30;45.80
20432;DHT22;10375;49.136;10.366;2023-07-20T12:57:41;29.70;46.60
20432;DHT22;10375;49.136;10.366;2023-07-20T13:00:10;29.70;47.50
20432;DHT22;10375;49.136;10.366;2023-07-20T13:02:39;30.00;47.20
20432;DHT22;10375;49.136;10.366;2023-07-20T13:05:06;30.40;46.80
20432;DHT22;10375;49.136;10.366;2023-07-20T13:07:38;30.70;45.30
20432;DHT22;10375;49.136;10.366;2023-07-20T13:10:09;30.40;44.30
20432;DHT22;10375;49.136;10.366;2023-07-20T13:12:37;30.50;45.50
20432;DHT22;10375;49.136;10.366;2023-07-20T13:15:07;30.70;46.00
20432;DHT22;10375;49.136;10.366;2023-07-20T13:17:38;30.70;45.50
20432;DHT22;10375;49.136;10.366;2023-07-20T13:20:07;30.60;44.40
20432;DHT22;10375;49.136;10.366;2023-07-20T13:22:37;29.90;44.60
20432;DHT22;10375;49.136;10.366;2023-07-20T13:25:06;29.10;45.80
20432;DHT22;10375;49.136;10.366;2023-07-20T13:27:33;28.70;47.00
20432;DHT22;10375;49.136;10.366;2023-07-20T13:30:01;28.80;47.50
20432;DHT22;10375;49.136;10.366;2023-07-20T13:32:35;29.30;46.10
20432;DHT22;10375;49.136;10.366;2023-07-20T13:35:03;29.90;46.10
20432;DHT22;10375;49.136;10.366;2023-07-20T13:37:30;29.90;42.80
20432;DHT22;10375;49.136;10.366;2023-07-20T13:39:57;29.50;44.10
20432;DHT22;10375;49.136;10.366;2023-07-20T13:42:25;29.30;44.20
20432;DHT22;10375;49.136;10.366;2023-07-20T13:44:52;29.00;43.90
20432;DHT22;10375;49.136;10.366;2023-07-20T13:47:19;28.80;44.80
20432;DHT22;10375;49.136;10.366;2023-07-20T13:49:48;28.50;44.50
20432;DHT22;10375;49.136;10.366;2023-07-20T13:52:29;28.40;45.50
20432;DHT22;10375;49.136;10.366;2023-07-20T13:54:59;28.50;45.30
20432;DHT22;10375;49.136;10.366;2023-07-20T13:57:27;28.90;43.40
20432;DHT22;10375;49.136;10.366;2023-07-20T13:59:54;28.90;44.20
20432;DHT22;10375;49.136;10.366;2023-07-20T14:02:21;28.70;44.80
20432;DHT22;10375;49.136;10.366;2023-07-20T14:04:51;28.80;44.50
20432;DHT22;10375;49.136;10.366;2023-07-20T14:07:24;29.10;44.00
20432;DHT22;10375;49.136;10.366;2023-07-20T14:09:51;29.40;43.80
20432;DHT22;10375;49.136;10.366;2023-07-20T14:12:21;29.50;42.70
20432;DHT22;10375;49.136;10.366;2023-07-20T14:14:49;29.60;41.80
20432;DHT22;10375;49.136;10.366;2023-07-20T14:17:16;29.70;42.70
20432;DHT22;10375;49.136;10.366;2023-07-20T14:19:43;29.80;43.00
20432;DHT22;10375;49.136;10.366;2023-07-20T14:22:10;29.80;41.40
20432;DHT22;10375;49.136;10.366;2023-07-20T14:24:38;29.70;42.50
20432;DHT22;10375;49.136;10.366;2023-07-20T14:27:05;29.70;42.10
20432;DHT22;10375;49.136;10.366;2023-07-20T14:29:33;29.60;43.00
20432;DHT22;10375;49.136;10.366;2023-07-20T14:32:03;29.60;41.80
20432;DHT22;10375;49.136;10.366;2023-07-20T14:34:33;29.70;43.30
20432;DHT22;10375;49.136;10.366;2023-07-20T14:37:05;29.70;42.20
20432;DHT22;10375;49.136;10.366;2023-07-20T14:39:32;29.20;42.50
20432;DHT22;10375;49.136;10.366;2023-07-20T14:41:59;28.80;41.40
20432;DHT22;10375;49.136;10.366;2023-07-20T14:44:26;28.70;44.00
20432;DHT22;10375;49.136;10.366;2023-07-20T14:46:54;28.50;42.00
20432;DHT22;10375;49.136;10.366;2023-07-20T14:49:40;28.40;43.20
20432;DHT22;10375;49.136;10.366;2023-07-20T14:52:07;28.50;44.30
20432;DHT22;10375;49.136;10.366;2023-07-20T14:54:37;28.70;45.20
20432;DHT22;10375;49.136;10.366;2023-07-20T14:57:06;29.00;43.40
20432;DHT22;10375;49.136;10.366;2023-07-20T14:59:41;28.90;43.60
20432;DHT22;10375;49.136;10.366;2023-07-20T15:02:09;28.90;44.30
20432;DHT22;10375;49.136;10.366;2023-07-20T15:04:36;29.00;44.60
20432;DHT22;10375;49.136;10.366;2023-07-20T15:07:03;29.10;43.70
20432;DHT22;10375;49.136;10.366;2023-07-20T15:09:30;29.30;43.90
20432;DHT22;10375;49.136;10.366;2023-07-20T15:11:58;29.40;44.50
20432;DHT22;10375;49.136;10.366;2023-07-20T15:14:25;29.40;43.70
20432;DHT22;10375;49.136;10.366;2023-07-20T15:16:52;29.30;43.10
20432;DHT22;10375;49.136;10.366;2023-07-20T15:19:19;29.30;44.20
20432;DHT22;10375;49.136;10.366;2023-07-20T15:21:46;29.40;43.40
20432;DHT22;10375;49.136;10.366;2023-07-20T15:24:13;29.30;44.00
20432;DHT22;10375;49.136;10.366;2023-07-20T15:26:40;29.30;45.80
20432;DHT22;10375;49.136;10.366;2023-07-20T15:29:08;29.10;44.70
20432;DHT22;10375;49.136;10.366;2023-07-20T15:31:55;29.00;45.30
20432;DHT22;10375;49.136;10.366;2023-07-20T15:34:25;28.70;45.00
20432;DHT22;10375;49.136;10.366;2023-07-20T15:36:51;28.40;44.60
20432;DHT22;10375;49.136;10.366;2023-07-20T15:39:19;28.10;45.00
20432;DHT22;10375;49.136;10.366;2023-07-20T15:41:47;27.80;45.60
20432;DHT22;10375;49.136;10.366;2023-07-20T15:44:14;27.70;45.70